createdAt,value
2018-06-19T00:00:30.410Z,19.70
2018-06-19T00:02:59.074Z,19.70
2018-06-19T00:05:31.366Z,19.80
2018-06-19T00:08:01.783Z,19.70
2018-06-19T00:10:30.812Z,19.60
2018-06-19T00:12:59.242Z,19.50
2018-06-19T00:15:27.877Z,19.40
2018-06-19T00:18:04.173Z,19.50
2018-06-19T00:20:32.576Z,19.60
2018-06-19T00:23:01.206Z,19.60
2018-06-19T00:25:29.661Z,19.70
2018-06-19T00:27:58.118Z,19.50
2018-06-19T00:30:26.770Z,19.50
2018-06-19T00:32:55.266Z,19.60
2018-06-19T00:35:23.627Z,19.40
2018-06-19T00:37:52.030Z,19.50
2018-06-19T00:40:20.375Z,19.40
2018-06-19T00:42:48.705Z,19.30
2018-06-19T00:45:17.090Z,19.50
2018-06-19T00:47:45.425Z,19.50
2018-06-19T00:50:13.786Z,19.50
2018-06-19T00:52:42.310Z,19.50
2018-06-19T00:55:10.652Z,19.50
2018-06-19T00:57:38.989Z,19.50
2018-06-19T01:00:07.558Z,19.50
2018-06-19T01:02:35.901Z,19.50
2018-06-19T01:05:04.263Z,19.40
2018-06-19T01:07:32.834Z,19.50
2018-06-19T01:10:01.205Z,19.40
2018-06-19T01:12:29.618Z,19.40
2018-06-19T01:14:58.083Z,19.40
2018-06-19T01:17:26.556Z,19.30
2018-06-19T01:19:55.031Z,19.30
2018-06-19T01:22:23.469Z,19.30
2018-06-19T01:24:51.817Z,19.20
2018-06-19T01:27:20.327Z,19.10
2018-06-19T01:29:48.680Z,19.10
2018-06-19T01:32:17.028Z,19.10
2018-06-19T01:34:45.445Z,19.00
2018-06-19T01:37:13.821Z,19.00
2018-06-19T01:39:42.189Z,19.10
2018-06-19T01:42:10.590Z,19.10
2018-06-19T01:44:38.963Z,19.00
2018-06-19T01:47:07.493Z,19.00
2018-06-19T01:49:35.872Z,19.20
2018-06-19T01:52:04.249Z,19.10
2018-06-19T01:54:32.639Z,19.10
2018-06-19T01:57:01.144Z,19.00
2018-06-19T01:59:29.758Z,18.90
2018-06-19T02:01:58.247Z,19.00
2018-06-19T02:04:26.718Z,19.00
2018-06-19T02:06:55.734Z,18.80
2018-06-19T02:09:24.182Z,18.80
2018-06-19T02:11:52.574Z,18.80
2018-06-19T02:14:21.117Z,18.70
2018-06-19T02:16:49.494Z,18.70
2018-06-19T02:19:17.877Z,18.70
2018-06-19T02:21:46.281Z,18.60
2018-06-19T02:24:14.650Z,18.60
2018-06-19T02:26:43.026Z,18.60
2018-06-19T02:29:11.561Z,18.60
2018-06-19T02:31:39.970Z,18.50
2018-06-19T02:34:08.340Z,18.60
2018-06-19T02:36:36.925Z,18.60
2018-06-19T02:39:07.922Z,18.60
2018-06-19T02:41:36.486Z,18.60
2018-06-19T02:44:05.070Z,18.40
2018-06-19T02:46:33.510Z,18.30
2018-06-19T02:51:30.369Z,18.10
2018-06-19T02:53:59.048Z,18.20
2018-06-19T02:56:27.686Z,18.20
2018-06-19T02:58:56.300Z,18.10
2018-06-19T03:01:24.731Z,18.00
2018-06-19T03:03:53.121Z,18.00
2018-06-19T03:06:21.462Z,17.90
2018-06-19T03:08:49.826Z,17.90
2018-06-19T03:11:18.175Z,17.90
2018-06-19T03:13:46.514Z,17.80
2018-06-19T03:16:15.084Z,17.90
2018-06-19T03:18:43.434Z,18.00
2018-06-19T03:21:11.781Z,17.90
2018-06-19T03:23:40.176Z,17.80
2018-06-19T03:26:08.531Z,17.80
2018-06-19T03:28:36.874Z,17.90
2018-06-19T03:31:05.431Z,18.10
2018-06-19T03:33:33.879Z,18.20
2018-06-19T03:36:02.229Z,18.20
2018-06-19T03:38:30.642Z,18.10
2018-06-19T03:40:59.051Z,18.10
2018-06-19T03:43:27.462Z,18.00
2018-06-19T03:45:55.991Z,18.10
2018-06-19T03:48:24.390Z,18.00
2018-06-19T03:50:52.752Z,17.90
2018-06-19T03:53:21.113Z,17.90
2018-06-19T03:55:49.496Z,17.80
2018-06-19T03:58:17.852Z,17.80
2018-06-19T04:00:46.197Z,17.90
2018-06-19T04:03:14.604Z,17.80
2018-06-19T04:05:42.999Z,17.80
2018-06-19T04:08:11.348Z,17.70
2018-06-19T04:10:39.706Z,17.70
2018-06-19T04:13:08.123Z,17.80
2018-06-19T04:15:36.631Z,17.80
2018-06-19T04:18:04.990Z,17.80
2018-06-19T04:20:33.337Z,17.70
2018-06-19T04:23:01.863Z,17.70
2018-06-19T04:25:30.255Z,17.80
2018-06-19T04:27:58.694Z,18.10
2018-06-19T04:30:27.139Z,18.00
2018-06-19T04:32:55.581Z,18.10
2018-06-19T04:35:23.994Z,18.10
2018-06-19T04:37:52.614Z,18.10
2018-06-19T04:40:20.983Z,18.20
2018-06-19T04:42:49.355Z,18.30
2018-06-19T04:45:18.200Z,18.30
2018-06-19T04:47:46.553Z,18.20
2018-06-19T04:50:15.452Z,18.30
2018-06-19T04:52:43.794Z,18.30
2018-06-19T04:55:12.138Z,18.30
2018-06-19T04:57:40.649Z,18.40
2018-06-19T05:00:09.005Z,18.50
2018-06-19T05:02:37.343Z,18.60
2018-06-19T05:05:05.862Z,18.80
2018-06-19T05:07:34.235Z,18.80
2018-06-19T05:10:02.602Z,18.70
2018-06-19T05:12:31.036Z,18.60
2018-06-19T05:14:59.413Z,18.60
2018-06-19T05:17:27.973Z,18.70
2018-06-19T05:19:56.468Z,19.00
2018-06-19T05:22:24.866Z,19.00
2018-06-19T05:24:53.455Z,18.90
2018-06-19T05:27:21.819Z,19.00
2018-06-19T05:29:50.180Z,19.00
2018-06-19T05:32:18.724Z,19.00
2018-06-19T05:34:47.092Z,19.10
2018-06-19T05:42:11.640Z,19.20
2018-06-19T05:47:08.321Z,19.20
2018-06-19T05:49:36.678Z,19.30
2018-06-19T05:52:05.091Z,19.30
2018-06-19T05:54:33.611Z,19.30
2018-06-19T05:57:01.988Z,19.30
2018-06-19T05:59:30.547Z,19.60
2018-06-19T06:01:58.926Z,19.60
2018-06-19T06:04:27.335Z,19.50
2018-06-19T06:06:55.919Z,19.60
2018-06-19T06:09:24.330Z,19.60
2018-06-19T06:11:52.694Z,19.60
2018-06-19T06:14:21.107Z,19.60
2018-06-19T06:16:49.497Z,19.60
2018-06-19T06:19:17.905Z,19.70
2018-06-19T06:21:46.285Z,19.80
2018-06-19T06:24:14.655Z,19.90
2018-06-19T06:26:43.008Z,20.00
2018-06-19T06:29:11.546Z,20.00
2018-06-19T06:31:39.914Z,20.10
2018-06-19T06:34:08.266Z,20.10
2018-06-19T06:36:36.786Z,20.10
2018-06-19T06:39:06.999Z,20.20
2018-06-19T06:41:35.638Z,20.30
2018-06-19T06:44:04.012Z,20.30
2018-06-19T06:46:32.417Z,20.40
2018-06-19T06:49:00.804Z,20.40
2018-06-19T06:51:29.210Z,20.40
2018-06-19T06:53:57.684Z,20.40
2018-06-19T06:56:26.140Z,20.50
2018-06-19T06:58:54.502Z,20.40
2018-06-19T07:01:22.853Z,20.40
2018-06-19T07:03:51.219Z,20.50
2018-06-19T07:06:19.570Z,20.60
2018-06-19T07:08:48.086Z,20.70
2018-06-19T07:11:16.419Z,20.80
2018-06-19T07:13:44.762Z,20.90
2018-06-19T07:16:13.118Z,20.90
2018-06-19T07:18:41.543Z,20.90
2018-06-19T07:21:09.887Z,20.90
2018-06-19T07:23:38.404Z,21.00
2018-06-19T07:26:06.767Z,21.00
2018-06-19T07:28:35.109Z,21.00
2018-06-19T07:31:03.507Z,21.10
2018-06-19T07:33:31.863Z,21.20
2018-06-19T07:36:00.548Z,21.40
2018-06-19T07:38:29.006Z,21.50
2018-06-19T07:40:57.545Z,21.50
2018-06-19T07:43:26.035Z,21.60
2018-06-19T07:45:54.464Z,21.60
2018-06-19T07:48:23.067Z,21.70
2018-06-19T07:50:51.453Z,22.00
2018-06-19T07:53:19.814Z,22.10
2018-06-19T07:55:48.208Z,22.20
2018-06-19T07:58:16.596Z,22.20
2018-06-19T08:00:44.982Z,22.30
2018-06-19T08:03:13.383Z,22.60
2018-06-19T08:05:41.913Z,23.10
2018-06-19T08:08:10.271Z,23.30
2018-06-19T08:10:38.649Z,23.30
2018-06-19T08:13:07.048Z,23.10
2018-06-19T08:15:35.423Z,23.10
2018-06-19T08:18:04.000Z,22.90
2018-06-19T08:20:32.413Z,22.90
2018-06-19T08:23:00.830Z,23.50
2018-06-19T08:25:29.355Z,24.40
2018-06-19T08:30:25.888Z,26.10
2018-06-19T08:32:54.546Z,26.70
2018-06-19T08:35:22.982Z,27.10
2018-06-19T08:37:51.380Z,27.60
2018-06-19T08:40:19.919Z,27.10
2018-06-19T08:42:48.314Z,26.50
2018-06-19T08:45:16.694Z,25.70
2018-06-19T08:47:45.119Z,25.40
2018-06-19T08:50:13.490Z,25.70
2018-06-19T08:52:42.044Z,25.50
2018-06-19T08:55:10.481Z,25.10
2018-06-19T08:57:38.814Z,25.40
2018-06-19T09:00:07.406Z,25.80
2018-06-19T09:02:35.762Z,25.90
2018-06-19T09:05:04.271Z,25.80
2018-06-19T09:07:32.734Z,25.70
2018-06-19T09:10:01.178Z,24.90
2018-06-19T09:12:29.715Z,25.00
2018-06-19T09:14:58.142Z,24.90
2018-06-19T09:17:26.537Z,24.60
2018-06-19T09:19:54.982Z,24.40
2018-06-19T09:22:23.376Z,25.30
2018-06-19T09:24:51.796Z,26.10
2018-06-19T09:27:20.325Z,26.10
2018-06-19T09:29:48.678Z,25.60
2018-06-19T09:32:17.039Z,25.20
2018-06-19T09:34:45.475Z,24.90
2018-06-19T09:37:13.875Z,24.60
2018-06-19T09:39:42.455Z,24.40
2018-06-19T09:42:10.799Z,24.10
2018-06-19T09:44:39.134Z,23.90
2018-06-19T09:47:07.681Z,23.70
2018-06-19T09:49:36.012Z,23.60
2018-06-19T09:52:04.435Z,23.40
2018-06-19T09:54:33.108Z,23.40
2018-06-19T09:57:01.522Z,23.20
2018-06-19T09:59:30.153Z,23.10
2018-06-19T10:01:58.560Z,23.10
2018-06-19T10:04:26.972Z,23.10
2018-06-19T10:06:55.397Z,23.00
2018-06-19T10:09:23.850Z,23.00
2018-06-19T10:11:52.262Z,22.90
2018-06-19T10:14:20.611Z,22.90
2018-06-19T10:16:48.969Z,22.90
2018-06-19T10:19:17.486Z,22.80
2018-06-19T10:21:45.845Z,22.90
2018-06-19T10:24:14.188Z,22.90
2018-06-19T10:26:42.582Z,22.90
2018-06-19T10:29:10.911Z,22.80
2018-06-19T10:31:39.286Z,22.80
2018-06-19T10:34:07.640Z,22.80
2018-06-19T10:39:04.753Z,22.80
2018-06-19T10:41:33.114Z,22.80
2018-06-19T10:44:01.459Z,22.80
2018-06-19T10:46:30.019Z,22.70
2018-06-19T10:48:58.415Z,22.70
2018-06-19T10:51:26.826Z,22.70
2018-06-19T10:53:55.417Z,22.70
2018-06-19T10:56:23.837Z,22.70
2018-06-19T10:58:52.216Z,22.60
2018-06-19T11:01:20.735Z,22.70
2018-06-19T11:03:49.118Z,22.70
2018-06-19T11:06:17.504Z,22.70
2018-06-19T11:08:45.862Z,22.60
2018-06-19T11:11:14.254Z,22.70
2018-06-19T11:13:42.762Z,22.70
2018-06-19T11:16:11.131Z,22.60
2018-06-19T11:18:39.478Z,22.70
2018-06-19T11:21:07.833Z,22.80
2018-06-19T11:23:36.195Z,22.80
2018-06-19T11:26:04.714Z,22.80
2018-06-19T11:28:33.076Z,22.80
2018-06-19T11:31:01.432Z,22.90
2018-06-19T11:33:29.970Z,22.90
2018-06-19T11:35:58.383Z,22.80
2018-06-19T11:38:26.839Z,22.80
2018-06-19T11:40:55.481Z,22.80
2018-06-19T11:43:23.909Z,22.80
2018-06-19T11:45:52.272Z,22.90
2018-06-19T11:48:20.679Z,22.90
2018-06-19T11:50:49.041Z,22.90
2018-06-19T11:53:17.393Z,23.00
2018-06-19T11:55:45.909Z,23.10
2018-06-19T11:58:14.249Z,23.20
2018-06-19T12:00:42.618Z,23.30
2018-06-19T12:03:10.987Z,23.40
2018-06-19T12:05:39.535Z,23.40
2018-06-19T12:08:07.887Z,23.40
2018-06-19T12:10:36.402Z,23.40
2018-06-19T12:13:04.787Z,23.30
2018-06-19T12:15:33.145Z,23.50
2018-06-19T12:18:01.638Z,23.50
2018-06-19T12:20:29.998Z,23.60
2018-06-19T12:22:58.585Z,23.60
2018-06-19T12:25:27.165Z,23.60
2018-06-19T12:27:55.775Z,23.50
2018-06-19T12:30:24.217Z,23.60
2018-06-19T12:32:52.600Z,23.60
2018-06-19T12:35:20.995Z,23.70
2018-06-19T12:37:49.513Z,23.80
2018-06-19T12:40:17.908Z,23.80
2018-06-19T12:42:46.309Z,23.90
2018-06-19T12:45:14.719Z,23.90
2018-06-19T12:47:43.131Z,23.90
2018-06-19T12:50:32.909Z,23.90
2018-06-19T12:53:13.731Z,23.90
2018-06-19T12:55:53.574Z,23.90
2018-06-19T12:58:22.275Z,23.90
2018-06-19T13:00:50.738Z,24.00
2018-06-19T13:03:30.394Z,24.00
2018-06-19T13:06:10.435Z,24.00
2018-06-19T13:08:38.843Z,24.00
2018-06-19T13:11:07.530Z,24.00
2018-06-19T13:13:47.280Z,24.00
2018-06-19T13:16:26.987Z,24.00
2018-06-19T13:19:06.662Z,24.00
2018-06-19T13:21:35.394Z,24.10
2018-06-19T13:24:03.952Z,24.10
2018-06-19T13:26:32.566Z,24.20
2018-06-19T13:29:38.560Z,24.20
2018-06-19T13:32:07.167Z,24.20
2018-06-19T13:34:36.214Z,24.30
2018-06-19T13:39:33.726Z,24.30
2018-06-19T13:42:14.139Z,24.30
2018-06-19T13:44:58.464Z,24.30
2018-06-19T13:47:27.088Z,24.30
2018-06-19T13:49:55.722Z,24.30
2018-06-19T13:52:24.291Z,24.30
2018-06-19T13:54:52.805Z,24.30
2018-06-19T13:57:33.698Z,24.30
2018-06-19T14:00:04.317Z,24.30
2018-06-19T14:02:33.054Z,24.30
2018-06-19T14:05:02.363Z,24.30
2018-06-19T14:07:32.872Z,24.30
2018-06-19T14:10:21.751Z,24.30
2018-06-19T14:13:04.740Z,24.30
2018-06-19T14:15:40.046Z,24.20
2018-06-19T14:18:08.864Z,24.20
2018-06-19T14:20:37.583Z,24.20
2018-06-19T14:23:06.012Z,24.20
2018-06-19T14:25:34.480Z,24.20
2018-06-19T14:28:03.010Z,24.20
2018-06-19T14:30:31.692Z,24.20
2018-06-19T14:33:00.296Z,24.20
2018-06-19T14:35:28.926Z,24.20
2018-06-19T14:37:57.772Z,24.20
2018-06-19T14:40:26.346Z,24.20
2018-06-19T14:42:55.085Z,24.20
2018-06-19T14:45:23.687Z,24.20
2018-06-19T14:47:52.072Z,24.20
2018-06-19T14:50:20.434Z,24.20
2018-06-19T14:52:48.813Z,24.20
2018-06-19T14:55:17.560Z,24.20
2018-06-19T14:57:46.104Z,24.20
2018-06-19T15:00:14.463Z,24.20
2018-06-19T15:02:42.821Z,24.20
2018-06-19T15:05:11.358Z,24.20
2018-06-19T15:07:58.125Z,24.30
2018-06-19T15:10:26.791Z,24.30
2018-06-19T15:12:55.409Z,24.30
2018-06-19T15:15:23.788Z,24.30
2018-06-19T15:17:52.293Z,24.30
2018-06-19T15:20:20.646Z,24.30
2018-06-19T15:22:49.055Z,24.30
2018-06-19T15:25:17.627Z,24.30
2018-06-19T15:27:45.986Z,24.30
2018-06-19T15:30:14.392Z,24.40
2018-06-19T15:32:42.901Z,24.40
2018-06-19T15:35:11.248Z,24.40
2018-06-19T15:37:39.606Z,24.40
2018-06-19T15:42:36.230Z,24.40
2018-06-19T15:45:04.634Z,24.40
2018-06-19T15:47:33.302Z,24.40
2018-06-19T15:50:01.855Z,24.40
2018-06-19T15:52:30.334Z,24.50
2018-06-19T15:54:58.935Z,24.50
2018-06-19T15:57:27.666Z,24.50
2018-06-19T15:59:56.276Z,24.50
2018-06-19T16:02:24.916Z,24.50
2018-06-19T16:04:53.351Z,24.50
2018-06-19T16:07:21.923Z,24.50
2018-06-19T16:09:50.313Z,24.50
2018-06-19T16:12:18.662Z,24.50
2018-06-19T16:14:47.211Z,24.50
2018-06-19T16:17:15.554Z,24.50
2018-06-19T16:19:43.938Z,24.40
2018-06-19T16:22:12.322Z,24.40
2018-06-19T16:24:40.671Z,24.40
2018-06-19T16:27:09.051Z,24.40
2018-06-19T16:29:37.406Z,24.30
2018-06-19T16:32:05.848Z,24.30
2018-06-19T16:34:34.212Z,24.30
2018-06-19T16:37:02.592Z,24.30
2018-06-19T16:39:31.179Z,24.30
2018-06-19T16:41:59.832Z,24.30
2018-06-19T16:44:28.204Z,24.30
2018-06-19T16:46:56.550Z,24.30
2018-06-19T16:49:24.943Z,24.30
2018-06-19T16:51:53.296Z,24.30
2018-06-19T16:54:21.813Z,24.40
2018-06-19T16:56:50.184Z,24.30
2018-06-19T17:01:46.642Z,24.20
2018-06-19T17:04:14.988Z,24.20
2018-06-19T17:06:43.333Z,24.30
2018-06-19T17:09:11.696Z,24.20
2018-06-19T17:11:40.076Z,24.30
2018-06-19T17:14:08.427Z,24.20
2018-06-19T17:16:36.786Z,24.20
2018-06-19T17:19:05.662Z,24.20
2018-06-19T17:21:33.999Z,24.30
2018-06-19T17:24:02.365Z,24.30
2018-06-19T17:26:30.753Z,24.30
2018-06-19T17:28:59.118Z,24.20
2018-06-19T17:31:27.682Z,24.20
2018-06-19T17:33:56.234Z,24.20
2018-06-19T17:36:24.639Z,24.20
2018-06-19T17:38:53.188Z,24.20
2018-06-19T17:41:21.542Z,24.20
2018-06-19T17:43:49.892Z,24.20
2018-06-19T17:46:18.475Z,24.20
2018-06-19T17:48:46.871Z,24.20
2018-06-19T17:51:15.345Z,24.20
2018-06-19T17:53:43.883Z,24.20
2018-06-19T17:56:12.242Z,24.20
2018-06-19T17:58:40.581Z,24.20
2018-06-19T18:01:08.939Z,24.20
2018-06-19T18:03:37.285Z,24.20
2018-06-19T18:06:05.847Z,24.20
2018-06-19T18:08:34.185Z,24.10
2018-06-19T18:11:02.533Z,24.10
2018-06-19T18:13:30.906Z,24.10
2018-06-19T18:15:59.286Z,24.20
2018-06-19T18:18:27.630Z,24.10
2018-06-19T18:20:56.023Z,24.10
2018-06-19T18:23:24.389Z,24.10
2018-06-19T18:25:52.902Z,24.00
2018-06-19T18:28:21.265Z,24.00
2018-06-19T18:30:49.641Z,23.90
2018-06-19T18:33:17.991Z,24.00
2018-06-19T18:35:46.337Z,24.00
2018-06-19T18:38:14.686Z,24.00
2018-06-19T18:40:43.302Z,24.00
2018-06-19T18:43:11.666Z,24.00
2018-06-19T18:45:40.051Z,24.00
2018-06-19T18:48:08.601Z,24.00
2018-06-19T18:50:37.056Z,24.00
2018-06-19T18:53:05.548Z,24.00
2018-06-19T18:55:34.034Z,24.00
2018-06-19T18:58:02.458Z,24.00
2018-06-19T19:00:30.854Z,23.90
2018-06-19T19:02:59.379Z,23.80
2018-06-19T19:05:27.792Z,23.80
2018-06-19T19:07:56.195Z,23.80
2018-06-19T19:10:29.842Z,23.80
2018-06-19T19:12:58.231Z,23.80
2018-06-19T19:15:32.036Z,23.80
2018-06-19T19:18:05.671Z,23.80
2018-06-19T19:20:34.328Z,23.70
2018-06-19T19:23:02.742Z,23.70
2018-06-19T19:25:31.106Z,23.70
2018-06-19T19:28:04.910Z,23.80
2018-06-19T19:30:33.282Z,23.80
2018-06-19T19:33:01.871Z,23.80
2018-06-19T19:35:30.299Z,23.80
2018-06-19T19:38:04.861Z,23.80
2018-06-19T19:40:33.259Z,23.80
2018-06-19T19:43:01.603Z,23.70
2018-06-19T19:45:30.142Z,23.60
2018-06-19T19:48:03.753Z,23.60
2018-06-19T19:50:32.271Z,23.70
2018-06-19T19:53:00.626Z,23.70
2018-06-19T19:55:28.975Z,23.70
2018-06-19T19:58:02.819Z,23.70
2018-06-19T20:00:31.170Z,23.70
2018-06-19T20:02:59.570Z,23.60
2018-06-19T20:05:29.602Z,23.60
2018-06-19T20:07:57.962Z,23.60
2018-06-19T20:10:26.497Z,23.60
2018-06-19T20:12:54.859Z,23.50
2018-06-19T20:15:23.218Z,23.40
2018-06-19T20:17:51.688Z,23.50
2018-06-19T20:20:20.014Z,23.40
2018-06-19T20:22:48.383Z,23.30
2018-06-19T20:25:16.727Z,23.30
2018-06-19T20:27:45.074Z,23.30
2018-06-19T20:30:13.623Z,23.30
2018-06-19T20:32:41.981Z,23.30
2018-06-19T20:35:10.392Z,23.20
2018-06-19T20:37:38.926Z,23.20
2018-06-19T20:40:07.275Z,23.20
2018-06-19T20:42:35.949Z,23.30
2018-06-19T20:45:04.394Z,23.30
2018-06-19T20:47:32.734Z,23.30
2018-06-19T20:50:01.129Z,23.30
2018-06-19T20:52:29.525Z,23.30
2018-06-19T20:54:57.887Z,23.20
2018-06-19T20:57:26.322Z,23.20
2018-06-19T20:59:54.672Z,23.10
2018-06-19T21:02:22.998Z,23.10
2018-06-19T21:04:51.518Z,23.10
2018-06-19T21:07:19.858Z,23.00
2018-06-19T21:09:48.199Z,22.90
2018-06-19T21:12:16.711Z,22.90
2018-06-19T21:14:45.053Z,22.90
2018-06-19T21:17:13.414Z,22.90
2018-06-19T21:19:41.779Z,22.80
2018-06-19T21:22:10.109Z,22.80
2018-06-19T21:24:38.442Z,22.80
2018-06-19T21:27:06.811Z,22.90
2018-06-19T21:29:35.153Z,22.90
2018-06-19T21:32:03.520Z,22.90
2018-06-19T21:34:32.059Z,22.80
2018-06-19T21:37:00.401Z,22.90
2018-06-19T21:39:28.775Z,22.90
2018-06-19T21:41:57.363Z,22.80
2018-06-19T21:44:25.750Z,22.70
2018-06-19T21:46:54.127Z,22.70
2018-06-19T21:49:22.664Z,22.60
2018-06-19T21:51:51.043Z,22.50
2018-06-19T21:54:19.408Z,22.40
2018-06-19T21:56:47.832Z,22.40
2018-06-19T21:59:16.233Z,22.30
2018-06-19T22:01:44.631Z,22.30
2018-06-19T22:04:12.998Z,22.30
2018-06-19T22:06:41.374Z,22.20
2018-06-19T22:09:09.906Z,22.20
2018-06-19T22:11:38.266Z,22.20
2018-06-19T22:14:06.650Z,22.20
2018-06-19T22:16:35.044Z,22.20
2018-06-19T22:19:03.586Z,22.10
2018-06-19T22:21:31.969Z,22.00
2018-06-19T22:24:00.358Z,22.00
2018-06-19T22:26:28.764Z,21.90
2018-06-19T22:28:57.132Z,21.90
2018-06-19T22:31:25.517Z,21.90
2018-06-19T22:33:53.940Z,21.90
2018-06-19T22:36:22.306Z,21.90
2018-06-19T22:38:50.662Z,21.90
2018-06-19T22:41:19.205Z,21.90
2018-06-19T22:43:47.562Z,21.90
2018-06-19T22:46:15.949Z,21.90
2018-06-19T22:48:44.333Z,21.90
2018-06-19T22:51:12.693Z,21.80
2018-06-19T22:53:41.090Z,21.90
2018-06-19T22:56:09.484Z,21.80
2018-06-19T22:58:37.874Z,21.90
2018-06-19T23:01:06.230Z,21.90
2018-06-19T23:03:34.627Z,21.90
2018-06-19T23:06:03.010Z,22.00
2018-06-19T23:08:33.907Z,22.20
2018-06-19T23:11:02.435Z,22.00
2018-06-19T23:13:30.803Z,21.90
2018-06-19T23:15:59.202Z,21.90
2018-06-19T23:18:27.574Z,22.00
2018-06-19T23:20:56.120Z,21.90
2018-06-19T23:23:24.584Z,21.90
2018-06-19T23:25:52.918Z,21.90
2018-06-19T23:28:21.352Z,22.00
2018-06-19T23:30:49.718Z,22.10
2018-06-19T23:33:18.071Z,22.20
2018-06-19T23:35:46.466Z,22.20
2018-06-19T23:38:14.830Z,22.10
2018-06-19T23:40:43.378Z,22.00
2018-06-19T23:43:11.740Z,21.90
2018-06-19T23:45:40.086Z,21.90
2018-06-19T23:48:08.458Z,21.90
2018-06-19T23:50:36.801Z,22.00
2018-06-19T23:53:05.152Z,22.00
2018-06-19T23:55:33.523Z,22.00
2018-06-19T23:58:01.861Z,22.00
